Weather observations for the past three days for
OHIO U/ATHEN-ALBANY
Imperial (Metric)
Date Time (edt) Wind (mph) Vis. (mi.) Weather Sky Cond. Temperature (ºF) Relative Humidity Wind Chill (°F) Heat Index (°F) Pressure Precipitation (in)
Air Dwpt 6 hour altimeter (in) sea level (mb) 1 hr 3 hr 6 hr
Max. Min.
05 06:35 S 7 10.00 A Few Clouds FEW070 64.2 48.9 58% 29.8 0.0
05 06:15 SW 8 10.00 A Few Clouds FEW070 64.8 48.7 56% 29.8 0.0
05 05:55 SW 9 10.00 Partly Cloudy SCT070 64.9 49.1 57% 29.79 0.0
05 05:35 SW 8 10.00 A Few Clouds FEW070 64.9 49.3 57% 29.79 0.0
05 05:15 SW 8 10.00 Fair CLR 64 49.6 60% 29.79 0.0
05 04:55 SW 7 10.00 A Few Clouds FEW110 64 49.8 60% 29.78 0.0
05 04:35 SW 8 10.00 A Few Clouds FEW110 64.4 50 60% 29.77 0.0
05 04:15 S 10 10.00 A Few Clouds FEW110 64.4 50.4 61% 29.77 0.0
05 03:55 SW 9 10.00 Partly Cloudy SCT120 64.2 50.4 61% 29.77 0.0
05 03:35 S 8 10.00 Partly Cloudy SCT110 64.4 50.4 61% 29.76 0.0
05 03:15 S 8 10.00 Fair CLR 64 50.5 62% 29.76 0.0
05 02:55 S 8 10.00 Fair CLR 63.9 50.5 62% 29.76 0.0
05 02:35 S 7 10.00 Fair CLR 64 50.5 62% 29.76 0.0
05 02:15 S 7 10.00 Fair CLR 63.7 50.4 62% 29.76 0.0
05 01:55 SW 5 10.00 Fair CLR 64.2 50.4 71.1 60.4 61% 29.77 0.0
05 01:35 S 6 10.00 Thunderstorm in Vicinity CLR 64.6 50.4 60% 29.77 0.0
05 01:15 SW 6 10.00 Fair CLR 65.3 50.4 59% 29.77 0.0
05 00:55 S 6 10.00 Fair CLR 65.5 51.1 60% 29.77 0.0
05 00:35 S 6 10.00 Fair CLR 65.3 51.3 61% 29.77 0.0
05 00:15 S 6 10.00 A Few Clouds FEW130 65.5 51.4 61% 29.76 0.0
04 23:55 S 6 10.00 Fair CLR 61.5 52.3 72% 29.76 0.0
04 23:35 SW 3 10.00 A Few Clouds FEW150 61.2 52.5 73% 29.76 0.0
04 23:15 S 3 10.00 A Few Clouds FEW150 62.2 52.2 70% 29.76 0.0
04 22:55 S 3 10.00 Fair CLR 63.3 52.7 68% 29.76 0.0
04 22:35 S 6 10.00 Fair CLR 64.9 52.2 63% 29.75 0.0
04 22:15 S 6 10.00 Fair CLR 64.6 52.7 66% 29.75 0.0
04 21:55 S 6 10.00 Fair CLR 64.8 53.1 66% 29.74 0.0
04 21:35 S 6 10.00 Fair CLR 64.8 53.2 66% 29.74 0.0
04 21:15 S 6 10.00 Fair CLR 66.7 53.1 62% 29.74 0.0
04 20:55 S 7 10.00 Fair CLR 66.7 52.9 61% 29.74 0.0
04 20:35 S 5 10.00 Fair CLR 67.8 53.2 60% 29.74 0.0
04 20:15 S 5 9.00 Fair CLR 69.6 52.9 55% 29.74 0.0
04 19:55 S 5 9.00 Fair CLR 71.4 52.3 73.6 67.1 51% 29.74 0.0
04 19:35 S 7 9.00 Fair CLR 72.3 52 49% 29.74 0.0
04 19:15 S 7 9.00 Fair CLR 72.1 51.6 49% 29.75 0.0
04 18:55 S 6 10.00 Fair CLR 73 50.9 46% 29.76 0.0
04 18:35 S 8 9.00 Fair CLR 72.3 50.2 46% 29.76 0.0
04 18:15 SW 8 10.00 Fair CLR 73.2 51.3 46% 29.77 0.0
04 17:55 SW 6 10.00 Fair CLR 72.9 52 48% 29.78 0.0
04 17:35 SW 10 10.00 Fair CLR 71.8 51.6 49% 29.78 0.0
04 17:15 SW 12 10.00 A Few Clouds FEW380 71.2 51.4 50% 29.79 0.0
04 16:55 SW 9 9.00 A Few Clouds FEW024 70.7 51.4 51% 29.8 0.0
04 16:35 SW 6 G 20 9.00 Fair CLR 70.2 50.2 49% 29.79 0.0
04 16:15 SW 14 G 22 9.00 A Few Clouds FEW150 70.2 49.8 49% 29.79 0.0
04 15:55 SW 8 10.00 A Few Clouds FEW340 72.1 51.1 48% 29.79 0.0
04 15:35 S 7 9.00 A Few Clouds FEW330 70.5 50.2 49% 29.78 0.0
04 15:15 S 8 10.00 A Few Clouds FEW340 71.1 49.6 47% 29.79 0.0
04 14:55 SW 7 10.00 A Few Clouds FEW320 69.4 49.6 50% 29.8 0.0
04 14:35 S 10 9.00 A Few Clouds FEW320 68.7 49.5 50% 29.8 0.0
04 14:15 SW 6 10.00 Fair CLR 67.6 49.1 52% 29.81 0.0
04 13:55 SW 13 G 22 10.00 A Few Clouds FEW300 67.5 47.8 70 51.6 50% 29.81 0.0
04 13:35 SW 13 G 22 10.00 A Few Clouds FEW310 69.8 49.1 48% 29.81 0.0
04 13:15 S 12 G 21 10.00 A Few Clouds FEW370 68.7 48.7 49% 29.81 0.0
04 12:55 SW 15 G 22 10.00 Partly Cloudy FEW260 SCT340 68.2 48.9 50% 29.82 0.0
04 12:35 SW 14 G 22 10.00 Partly Cloudy FEW280 SCT340 66.9 47.7 50% 29.83 0.0
04 12:15 SW 15 G 23 10.00 Fair CLR 67.3 48.4 51% 29.83 0.0
04 11:55 SW 13 G 21 10.00 A Few Clouds FEW330 64.6 46.9 53% 29.84 0.0
04 11:35 SW 18 G 22 10.00 A Few Clouds FEW330 64.8 47.1 53% 29.85 0.0
04 11:15 SW 14 G 21 10.00 A Few Clouds FEW350 62.2 46.8 57% 29.86 0.0
04 10:55 S 14 G 20 10.00 Fair CLR 61.3 46.4 58% 29.86 0.0
04 10:35 SW 9 G 17 10.00 Partly Cloudy FEW070 SCT320 61.3 46.4 58% 29.87 0.0
04 10:15 SW 13 G 23 8.00 Partly Cloudy SCT070 58.8 44.4 59% 29.87 0.0
04 09:55 SW 9 10.00 A Few Clouds FEW330 59.4 43.9 57% 29.88 0.0
04 09:35 SW 12 G 20 10.00 Fair CLR 58.3 43 57% 29.88 0.0
04 09:15 SW 12 G 18 10.00 Fair CLR 57.2 42.1 57% 29.88 0.0
04 08:55 SW 9 10.00 Fair CLR 55.8 40.6 57% 29.87 0.0
04 08:35 S 10 10.00 Fair CLR 54.5 40.3 59% 29.87 0.0
04 08:15 S 7 9.00 A Few Clouds FEW070 52.2 39.6 62% 29.87 0.0
04 07:55 SW 8 10.00 A Few Clouds FEW070 51.3 39 52.5 47.8 63% 29.87 0.0
04 07:35 S 8 10.00 Fair CLR 50 38.3 64% 47 29.87 0.0
04 07:15 S 8 9.00 Fair CLR 49.3 37.9 65% 46 29.87 0.0
04 06:55 SW 5 10.00 Fair CLR 48.2 37.8 67% 47 29.87 0.0
04 06:35 S 3 10.00 Fair CLR 48 37.9 68% 29.87 0.0
04 06:15 S 6 10.00 Fair CLR 48.4 37.8 67% 46 29.87 0.0
04 05:55 S 6 10.00 Fair CLR 48.9 37.8 66% 47 29.88 0.0
04 05:35 S 6 10.00 Fair CLR 49.3 37.8 65% 47 29.88 0.0
04 05:15 S 6 10.00 Fair CLR 49.8 37.6 63% 48 29.89 0.0
04 04:55 S 6 10.00 Fair CLR 49.8 37.8 63% 48 29.89 0.0
04 04:35 S 5 10.00 Fair CLR 49.6 37.6 63% 48 29.9 0.0
04 04:15 S 5 10.00 A Few Clouds FEW090 50.5 37.9 62% 29.89 0.0
04 03:55 S 6 10.00 Mostly Cloudy BKN120 51.4 37.9 60% 29.9 0.0
04 03:35 S 6 10.00 A Few Clouds FEW120 51.1 37.9 61% 29.9 0.0
04 03:15 S 3 10.00 A Few Clouds FEW075 50.9 38.8 64% 29.91 0.0
04 02:55 Calm 10.00 Mostly Cloudy BKN075 51.8 37.9 59% 29.92 0.0
04 02:35 Calm 10.00 Mostly Cloudy BKN075 51.8 37.9 59% 29.92 0.0
04 02:15 S 3 10.00 Partly Cloudy SCT075 52 38.1 59% 29.93 0.0
04 01:55 S 5 10.00 Mostly Cloudy BKN080 BKN120 52.9 37.2 58.1 50.7 55% 29.93 0.0
04 01:35 S 5 10.00 Mostly Cloudy BKN080 53.4 36.9 54% 29.94 0.0
04 01:15 S 6 10.00 Overcast OVC075 53.6 35.6 51% 29.94 0.0
04 00:55 S 6 10.00 Mostly Cloudy BKN075 53.8 34.9 49% 29.95 0.0
04 00:35 S 9 10.00 Mostly Cloudy BKN075 53.8 34.2 48% 29.95 0.0
04 00:15 S 5 10.00 Mostly Cloudy BKN080 52.9 34.5 50% 29.95 0.0
03 23:55 Calm 10.00 Partly Cloudy SCT085 50.9 40.6 68% 29.95 0.0
03 23:35 Calm 10.00 Partly Cloudy SCT080 51.6 41 67% 29.95 0.0
03 23:15 Calm 10.00 Mostly Cloudy BKN080 BKN095 51.6 41.5 69% 29.95 0.0
03 22:55 Calm 10.00 Partly Cloudy SCT080 52.5 39.2 61% 29.96 0.0
03 22:35 Calm 10.00 A Few Clouds FEW080 52.5 39.7 62% 29.96 0.0
03 22:15 Calm 10.00 Partly Cloudy SCT080 53.8 36.7 53% 29.96 0.0
03 21:55 Calm 10.00 Mostly Cloudy BKN080 53.8 35.4 50% 29.96 0.0
03 21:35 S 3 10.00 Mostly Cloudy BKN085 54.3 36.5 51% 29.95 0.0
03 21:15 S 3 10.00 Mostly Cloudy BKN090 54.1 36.5 51% 29.95 0.0
03 20:55 S 3 10.00 Mostly Cloudy BKN095 56.7 32.7 40% 29.95 0.0
03 20:35 S 5 10.00 Partly Cloudy SCT100 57.2 31.3 37% 29.95 0.0
03 20:15 SW 7 9.00 Fair CLR 57 31.1 37% 29.96 0.0
03 19:55 SW 8 9.00 Partly Cloudy SCT085 58.1 30.4 62.6 57.6 35% 29.96 0.0
03 19:35 SW 8 9.00 Partly Cloudy SCT085 58.1 30.6 35% 29.96 0.0
03 19:15 W 10 9.00 Fair CLR 58.6 30.6 35% 29.95 0.0
03 18:55 SW 9 9.00 Partly Cloudy SCT120 59.5 30.6 33% 29.96 0.0
03 18:35 SW 8 8.00 Mostly Cloudy BKN120 59.9 30 32% 29.96 0.0
03 18:15 SW 10 9.00 Partly Cloudy SCT120 60.3 28.9 31% 29.97 0.0
03 17:55 W 12 9.00 Fair CLR 61.3 29.5 30% 29.97 0.0
03 17:35 SW 10 9.00 Fair CLR 60.6 28.2 29% 29.97 0.0
03 17:15 S 10 10.00 Fair CLR 62.1 28 28% 29.97 0.0
03 16:55 S 12 G 20 10.00 Fair CLR 61.9 28.4 28% 29.97 0.0
03 16:35 SW 10 10.00 Fair CLR 61.9 29.7 30% 29.98 0.0
03 16:15 SW 9 10.00 Fair CLR 61.5 29.1 29% 29.98 0.0
03 15:55 W 13 10.00 Fair CLR 61.5 29.7 30% 30 0.0
03 15:35 SW 10 10.00 Fair CLR 60.8 29.3 30% 30.01 0.0
03 14:55 S 9 10.00 Fair CLR 60.6 29.3 31% 30.03 0.0
03 14:35 SW 9 10.00 Fair CLR 58.5 27.5 31% 30.04 0.0
03 14:15 Vrbl 6 10.00 A Few Clouds FEW075 58.8 28.6 32% 30.05 0.0
03 13:55 W 9 10.00 Partly Cloudy FEW070 SCT290 57.7 28.4 58.8 33.8 33% 30.06 0.0
03 13:35 SW 7 10.00 A Few Clouds FEW280 57 28.8 34% 30.07 0.0
03 13:15 Vrbl 6 10.00 A Few Clouds FEW070 57.6 30.2 35% 30.07 0.0
03 12:55 SW 9 10.00 A Few Clouds FEW330 57.4 30.6 36% 30.08 0.0
03 12:35 SW 8 G 17 10.00 A Few Clouds FEW330 57 30.9 37% 30.09 0.0
03 12:15 SW 12 10.00 Fair CLR 55.6 28.6 36% 30.09 0.0
03 11:55 W 8 10.00 Fair CLR 55.4 28.4 36% 30.1 0.0
03 11:35 SW 9 10.00 Fair CLR 54.7 29.7 38% 30.1 0.0
03 11:15 Vrbl 6 10.00 Fair CLR 53.4 29.3 40% 30.11 0.0
03 10:55 Vrbl 7 10.00 Fair CLR 52.3 28.9 41% 30.11 0.0
03 10:35 Vrbl 6 10.00 Fair CLR 50.9 30.6 46% 30.12 0.0
03 10:15 SW 7 10.00 Fair CLR 49.6 31.8 50% 47 30.12 0.0
03 09:55 W 10 10.00 Fair CLR 47.3 31.8 55% 43 30.12 0.0
03 09:35 SW 9 10.00 Fair CLR 46.4 32.4 58% 42 30.12 0.0
03 09:15 SW 3 10.00 Fair CLR 44.1 34.7 70% 30.12 0.0
03 08:55 SW 6 10.00 Fair CLR 41.2 34.3 77% 38 30.12 0.0
03 08:35 SW 5 10.00 Fair CLR 38.5 33.8 83% 36 30.12 0.0
03 08:15 W 5 10.00 Fair CLR 35.8 32.9 89% 32 30.12 0.0
03 07:55 W 3 10.00 Fair CLR 32.4 31.3 32.4 28.2 96% 30.11 0.0
03 07:35 W 5 10.00 Fair CLR 31.1 30.4 97% 27 30.11 0.0
03 07:15 W 3 10.00 Fair CLR 29.1 28.4 97% 30.09 0.0
03 06:55 Calm 7.00 Fair CLR 28.4 28.2 99% 30.09 0.0
03 06:35 Calm 9.00 Fair CLR 28.8 28.4 99% 30.09 0.0
03 06:15 Calm 9.00 Fair CLR 28.4 28 99% 30.08 0.0
03 05:55 Calm 10.00 Fair CLR 28.9 28.4 98% 30.07 0.0
03 05:35 Calm 10.00 Fair CLR 29.1 28.9 99% 30.07 0.0
03 04:55 Calm 9.00 Fair CLR 30 29.5 98% 30.07 0.0
03 04:35 Calm 10.00 Fair CLR 30.7 30.4 99% 30.07 0.0
03 04:15 Calm 10.00 Fair CLR 30 29.8 99% 30.07 0.0
03 03:55 W 3 10.00 Fair CLR 29.8 29.5 99% 30.06 0.0
03 03:35 Calm 10.00 Fair CLR 30.2 30 99% 30.06 0.0
03 03:15 Calm 10.00 Fair CLR 30.7 30.2 98% 30.06 0.0
03 02:55 Calm 10.00 Fair CLR 31.8 31.6 99% 30.06 0.0
03 02:35 Calm 10.00 Fair CLR 32.2 31.6 98% 30.06 0.0
03 02:15 Calm 10.00 Fair CLR 32 31.6 99% 30.06 0.0
03 01:55 Calm 10.00 Fair CLR 32.7 31.6 47.3 32.7 96% 30.07 0.0
03 01:35 Calm 10.00 Fair CLR 32.9 32 97% 30.06 0.0
03 01:15 Calm 10.00 Fair CLR 33.6 32.7 97% 30.06 0.0
03 00:55 Calm 10.00 Fair CLR 34 32.7 95% 30.07 0.0
03 00:35 Calm 10.00 Fair CLR 34.7 33.1 94% 30.07 0.0
03 00:15 Calm 10.00 Fair CLR 35.4 34 95% 30.06 0.0
02 23:55 Calm 10.00 Fair CLR 36.7 34 90% 30.06 0.0
02 23:35 Calm 10.00 Fair CLR 37.4 33.4 86% 30.06 0.0
02 23:15 Calm 10.00 A Few Clouds FEW080 40.1 34.5 81% 30.06 0.0
02 22:55 Calm 10.00 Overcast OVC080 41.4 33.6 74% 30.06 0.0
02 22:35 Calm 10.00 Overcast OVC080 41.9 33.6 73% 30.06 0.0
02 22:15 N 3 10.00 Overcast OVC080 42.4 32.4 68% 30.06 0.0
02 21:55 N 6 10.00 Overcast OVC080 43.2 31.3 63% 40 30.05 0.0
02 21:35 Calm 10.00 Mostly Cloudy BKN080 43.2 30.9 62% 30.05 0.0
02 21:15 Calm 10.00 Partly Cloudy SCT080 43.9 30 58% 30.04 0.0
02 20:55 N 5 10.00 A Few Clouds FEW085 44.4 29.8 57% 42 30.04 0.0
02 20:35 Calm 10.00 A Few Clouds FEW085 45.1 30.2 56% 30.03 0.0
02 20:15 N 5 10.00 A Few Clouds FEW080 46.2 29.8 53% 45 30.03 0.0
02 19:55 NW 6 10.00 Fair CLR 47.8 26.6 55.8 47.8 44% 46 30.02 0.0
02 19:35 N 8 10.00 Fair CLR 49.1 27.3 43% 46 30.01 0.0
02 19:15 NW 9 10.00 Fair CLR 50 25 38% 47 30.01 0.0
02 18:55 Vrbl 5 10.00 Fair CLR 50.9 24.8 36% 30 0.0
02 18:35 NW 13 G 20 10.00 Fair CLR 51.6 25.5 36% 30 0.0
02 18:15 NW 8 G 22 10.00 Fair CLR 51.8 25.5 36% 30 0.0
02 17:55 NW 13 10.00 A Few Clouds FEW070 51.8 26.1 37% 30 0.0
02 17:35 NW 7 9.00 Partly Cloudy SCT070 50.9 25.7 38% 29.99 0.0
02 17:15 N 13 G 17 10.00 Mostly Cloudy BKN070 52.7 26.2 36% 29.99 0.0
02 16:55 W 12 10.00 A Few Clouds FEW070 51.4 25.5 37% 29.99 0.0
02 16:35 W 13 9.00 Partly Cloudy FEW065 SCT380 52.2 25.2 35% 29.99 0.0
02 16:15 NW 8 9.00 Partly Cloudy SCT070 SCT380 52.2 26.6 37% 29.99 0.0
02 15:55 NW 10 10.00 Partly Cloudy SCT065 52 24.6 34% 29.99 0.0
02 15:35 NW 9 9.00 Partly Cloudy SCT065 52.9 26.1 35% 29.99 0.0
02 15:15 NW 7 G 18 10.00 Mostly Cloudy BKN065 52.3 25.3 35% 30 0.0
02 14:55 NW 12 G 17 10.00 Partly Cloudy SCT065 53.4 26.2 35% 30 0.0
02 14:35 NW 12 G 22 10.00 A Few Clouds FEW060 53.8 27.1 36% 30 0.0
02 14:15 NW 12 10.00 A Few Clouds FEW060 53.1 27.5 37% 30.01 0.0
02 13:55 NW 8 G 24 9.00 Partly Cloudy SCT060 51.1 25.7 53.2 33.6 37% 30.01 0.0
02 13:35 W 8 10.00 A Few Clouds FEW060 52.9 28.2 39% 30.01 0.0
02 13:15 NW 14 10.00 Mostly Cloudy SCT060 BKN370 52.7 26.8 37% 30.01 0.0
02 12:55 NW 13 G 21 10.00 Mostly Cloudy BKN060 51.3 26.6 38% 30.02 0.0
02 12:35 W 17 G 23 9.00 Fair CLR 52.9 27.3 37% 30.02 0.0
02 12:15 NW 10 G 20 10.00 Fair CLR 51.4 26.4 38% 30.03 0.0
02 11:55 W 12 G 18 10.00 Fair CLR 50.4 27.9 42% 30.03 0.0
02 11:35 NW 10 10.00 Fair CLR 49.3 27.7 43% 45 30.03 0.0
02 11:15 NW 12 10.00 Fair CLR 49.1 28.6 45% 45 30.03 0.0
02 10:55 W 9 10.00 Fair CLR 48.6 30.4 50% 45 30.03 0.0
02 10:35 NW 8 10.00 Fair CLR 47.1 29.8 51% 44 30.03 0.0
02 10:15 NW 10 10.00 Fair CLR 46 30.6 55% 42 30.04 0.0
02 09:55 NW 7 10.00 Fair CLR 44.8 32.4 62% 41 30.03 0.0
02 09:35 Vrbl 5 10.00 Fair CLR 43.9 33.1 66% 42 30.03 0.0
02 09:15 N 5 10.00 Fair CLR 42.4 34.9 75% 40 30.03 0.0
02 08:55 NW 6 10.00 Fair CLR 40.3 35.4 83% 37 30.03 0.0
02 08:35 NW 5 10.00 Fair CLR 38.7 36.9 93% 36 30.03 0.0
02 08:15 Calm 10.00 Fair CLR 36 36 100% 30.03 0.0
02 07:55 Calm 9.00 Fair CLR 32.5 32.5 36.7 30.4 100% 30.03 0.0
02 07:35 Calm 8.00 A Few Clouds FEW001 31.3 31.3 100% 30.03 0.0
02 07:15 Calm 0.50 Freezing Fog CLR 30.6 30.6 100% 30.02 0.0
02 06:55 Calm 3.00 Fog/Mist CLR 30.7 30.7 100% 30.02 0.0
Date Time (edt) Wind (mph) Vis. (mi.) Weather Sky Cond. Air Dwpt Max. Min. Relative Humidity Wind Chill (°F) Heat Index (°F) altimeter (in) sea level (mb) 1 hr 3 hr 6 hr
6 hour
Temperature (ºF) Pressure Precipitation (in)